sensor_id;sensor_type;location;lat;lon;timestamp;pressure;altitude;pressure_sealevel;temperature;humidity
49367;BME280;35245;52.026;8.540;2024-02-15T00:01:13;7670.13;;;-145.42;100.00
49367;BME280;35245;52.026;8.540;2024-02-15T00:03:41;8423.00;;;-145.42;100.00
49367;BME280;35245;52.026;8.540;2024-02-15T00:06:08;7168.31;;;-145.42;100.00
49367;BME280;35245;52.026;8.540;2024-02-15T00:08:35;10682.44;;;-145.42;100.00
49367;BME280;35245;52.026;8.540;2024-02-15T00:11:04;9678.06;;;-145.42;100.00
49367;BME280;35245;52.026;8.540;2024-02-15T00:13:31;9929.13;;;-145.42;100.00
49367;BME280;35245;52.026;8.540;2024-02-15T00:15:59;9176.00;;;-145.42;100.00
49367;BME280;35245;52.026;8.540;2024-02-15T00:18:26;8924.97;;;-145.42;100.00
49367;BME280;35245;52.026;8.540;2024-02-15T00:20:53;5412.47;;;-145.42;100.00
49367;BME280;35245;52.026;8.540;2024-02-15T00:23:20;5412.47;;;-145.42;100.00
49367;BME280;35245;52.026;8.540;2024-02-15T00:25:47;11184.69;;;-145.42;100.00
49367;BME280;35245;52.026;8.540;2024-02-15T00:28:17;26283.22;;;-145.42;100.00
49367;BME280;35245;52.026;8.540;2024-02-15T00:30:44;19733.34;;;-145.42;100.00
49367;BME280;35245;52.026;8.540;2024-02-15T00:33:11;26031.09;;;-145.42;100.00
49367;BME280;35245;52.026;8.540;2024-02-15T00:35:38;31834.03;;;-145.42;100.00
49367;BME280;35245;52.026;8.540;2024-02-15T00:38:05;17720.19;;;-145.42;100.00
49367;BME280;35245;52.026;8.540;2024-02-15T00:40:32;8423.00;;;-145.42;100.00
49367;BME280;35245;52.026;8.540;2024-02-15T00:43:00;2654.88;;;-145.42;100.00
49367;BME280;35245;52.026;8.540;2024-02-15T00:45:28;2153.72;;;-145.42;100.00
49367;BME280;35245;52.026;8.540;2024-02-15T00:47:56;3657.41;;;-145.42;100.00
49367;BME280;35245;52.026;8.540;2024-02-15T00:50:23;2905.47;;;-145.42;100.00
49367;BME280;35245;52.026;8.540;2024-02-15T00:52:50;3657.41;;;-145.42;100.00
49367;BME280;35245;52.026;8.540;2024-02-15T00:55:17;4158.78;;;-145.42;100.00
49367;BME280;35245;52.026;8.540;2024-02-15T00:57:45;3406.75;;;-145.42;100.00
49367;BME280;35245;52.026;8.540;2024-02-15T01:00:13;4409.47;;;-145.42;100.00
49367;BME280;35245;52.026;8.540;2024-02-15T01:02:42;10682.44;;;-145.42;100.00
49367;BME280;35245;52.026;8.540;2024-02-15T01:05:09;13697.06;;;-145.42;100.00
49367;BME280;35245;52.026;8.540;2024-02-15T01:07:36;14199.72;;;-145.42;100.00
49367;BME280;35245;52.026;8.540;2024-02-15T01:10:05;13948.38;;;-145.42;100.00
49367;BME280;35245;52.026;8.540;2024-02-15T01:12:32;11938.22;;;-145.42;100.00
49367;BME280;35245;52.026;8.540;2024-02-15T01:14:59;10933.56;;;-145.42;100.00
49367;BME280;35245;52.026;8.540;2024-02-15T01:17:26;10682.44;;;-145.42;100.00
49367;BME280;35245;52.026;8.540;2024-02-15T01:19:55;8673.97;;;-145.42;100.00
49367;BME280;35245;52.026;8.540;2024-02-15T01:22:22;8673.97;;;-145.42;100.00
49367;BME280;35245;52.026;8.540;2024-02-15T01:24:49;10180.22;;;-145.42;100.00
49367;BME280;35245;52.026;8.540;2024-02-15T01:27:16;7670.13;;;-145.42;100.00
49367;BME280;35245;52.026;8.540;2024-02-15T01:29:43;6164.88;;;-145.42;100.00
49367;BME280;35245;52.026;8.540;2024-02-15T01:32:11;1402.06;;;-145.42;100.00
49367;BME280;35245;52.026;8.540;2024-02-15T01:34:38;5161.69;;;-145.42;100.00
49367;BME280;35245;52.026;8.540;2024-02-15T01:37:06;4409.47;;;-145.42;100.00
49367;BME280;35245;52.026;8.540;2024-02-15T01:39:33;3908.09;;;-145.42;100.00
49367;BME280;35245;52.026;8.540;2024-02-15T01:42:00;6415.72;;;-145.42;100.00
49367;BME280;35245;52.026;8.540;2024-02-15T01:44:28;4910.94;;;-145.42;100.00
49367;BME280;35245;52.026;8.540;2024-02-15T01:46:56;3406.75;;;-145.42;100.00
49367;BME280;35245;52.026;8.540;2024-02-15T01:49:23;1402.06;;;-145.42;100.00
49367;BME280;35245;52.026;8.540;2024-02-15T01:51:53;-1102.31;;;-145.42;100.00
49367;BME280;35245;52.026;8.540;2024-02-15T01:54:25;5161.69;;;-145.42;100.00
49367;BME280;35245;52.026;8.540;2024-02-15T01:56:52;6917.44;;;-145.42;100.00
49367;BME280;35245;52.026;8.540;2024-02-15T01:59:23;7168.31;;;-145.42;100.00
49367;BME280;35245;52.026;8.540;2024-02-15T02:01:52;5161.69;;;-145.42;100.00
49367;BME280;35245;52.026;8.540;2024-02-15T02:04:19;2153.72;;;-145.42;100.00
49367;BME280;35245;52.026;8.540;2024-02-15T02:06:47;2153.72;;;-145.42;100.00
49367;BME280;35245;52.026;8.540;2024-02-15T02:09:14;-100.75;;;-145.42;100.00
49367;BME280;35245;52.026;8.540;2024-02-15T02:11:45;1151.56;;;-145.42;100.00
49367;BME280;35245;52.026;8.540;2024-02-15T02:14:14;650.59;;;-145.42;100.00
49367;BME280;35245;52.026;8.540;2024-02-15T02:16:41;149.69;;;-145.42;100.00
49367;BME280;35245;52.026;8.540;2024-02-15T02:19:08;-601.56;;;-145.42;100.00
49367;BME280;35245;52.026;8.540;2024-02-15T02:21:37;650.59;;;-145.42;100.00
49367;BME280;35245;52.026;8.540;2024-02-15T02:24:13;650.59;;;-145.42;100.00
49367;BME280;35245;52.026;8.540;2024-02-15T02:26:42;1903.16;;;-145.42;100.00
49367;BME280;35245;52.026;8.540;2024-02-15T02:29:09;650.59;;;-145.42;100.00
49367;BME280;35245;52.026;8.540;2024-02-15T02:31:36;-1102.31;;;-145.42;100.00
49367;BME280;35245;52.026;8.540;2024-02-15T02:34:03;149.69;;;-145.42;100.00
49367;BME280;35245;52.026;8.540;2024-02-15T02:36:32;-1102.31;;;-145.42;100.00
49367;BME280;35245;52.026;8.540;2024-02-15T02:38:59;-351.16;;;-145.42;100.00
49367;BME280;35245;52.026;8.540;2024-02-15T02:41:27;400.13;;;-145.42;100.00
49367;BME280;35245;52.026;8.540;2024-02-15T02:43:56;-351.16;;;-145.42;100.00
49367;BME280;35245;52.026;8.540;2024-02-15T02:46:24;-1102.31;;;-145.42;100.00
49367;BME280;35245;52.026;8.540;2024-02-15T02:48:51;-2353.88;;;-145.42;100.00
49367;BME280;35245;52.026;8.540;2024-02-15T02:51:18;-1352.66;;;-145.42;100.00
49367;BME280;35245;52.026;8.540;2024-02-15T02:53:45;-601.56;;;-145.42;100.00
49367;BME280;35245;52.026;8.540;2024-02-15T02:56:12;-1102.31;;;-145.42;100.00
49367;BME280;35245;52.026;8.540;2024-02-15T02:58:40;1151.56;;;-145.42;100.00
49367;BME280;35245;52.026;8.540;2024-02-15T03:01:09;4158.78;;;-145.42;100.00
49367;BME280;35245;52.026;8.540;2024-02-15T03:03:36;5663.25;;;-145.42;100.00
49367;BME280;35245;52.026;8.540;2024-02-15T03:06:05;3908.09;;;-145.42;100.00
49367;BME280;35245;52.026;8.540;2024-02-15T03:08:32;2905.47;;;-145.42;100.00
49367;BME280;35245;52.026;8.540;2024-02-15T03:11:00;3908.09;;;-145.42;100.00
49367;BME280;35245;52.026;8.540;2024-02-15T03:13:27;2654.88;;;-145.42;100.00
49367;BME280;35245;52.026;8.540;2024-02-15T03:15:54;2905.47;;;-145.42;100.00
49367;BME280;35245;52.026;8.540;2024-02-15T03:18:23;149.69;;;-145.42;100.00
49367;BME280;35245;52.026;8.540;2024-02-15T03:20:50;2404.28;;;-145.42;100.00
49367;BME280;35245;52.026;8.540;2024-02-15T03:23:17;-100.75;;;-145.42;100.00
49367;BME280;35245;52.026;8.540;2024-02-15T03:25:44;149.69;;;-145.42;100.00
49367;BME280;35245;52.026;8.540;2024-02-15T03:28:11;1652.59;;;-145.42;100.00
49367;BME280;35245;52.026;8.540;2024-02-15T03:30:38;1402.06;;;-145.42;100.00
49367;BME280;35245;52.026;8.540;2024-02-15T03:33:05;1151.56;;;-145.42;100.00
49367;BME280;35245;52.026;8.540;2024-02-15T03:35:34;1652.59;;;-145.42;100.00
49367;BME280;35245;52.026;8.540;2024-02-15T03:38:01;1903.16;;;-145.42;100.00
49367;BME280;35245;52.026;8.540;2024-02-15T03:40:29;2404.28;;;-145.42;100.00
49367;BME280;35245;52.026;8.540;2024-02-15T03:42:58;2654.88;;;-145.42;100.00
49367;BME280;35245;52.026;8.540;2024-02-15T03:45:25;4660.19;;;-145.42;100.00
49367;BME280;35245;52.026;8.540;2024-02-15T03:47:52;6164.88;;;-145.42;100.00
49367;BME280;35245;52.026;8.540;2024-02-15T03:50:19;7670.13;;;-145.42;100.00
49367;BME280;35245;52.026;8.540;2024-02-15T03:52:49;9427.03;;;-145.42;100.00
49367;BME280;35245;52.026;8.540;2024-02-15T03:55:17;9678.06;;;-145.42;100.00
49367;BME280;35245;52.026;8.540;2024-02-15T03:57:45;11184.69;;;-145.42;100.00
49367;BME280;35245;52.026;8.540;2024-02-15T04:00:13;10933.56;;;-145.42;100.00
49367;BME280;35245;52.026;8.540;2024-02-15T04:02:41;9427.03;;;-145.42;100.00
49367;BME280;35245;52.026;8.540;2024-02-15T04:05:09;7921.06;;;-145.42;100.00
49367;BME280;35245;52.026;8.540;2024-02-15T04:07:38;6666.56;;;-145.42;100.00
49367;BME280;35245;52.026;8.540;2024-02-15T04:10:07;15456.66;;;-145.42;100.00
49367;BME280;35245;52.026;8.540;2024-02-15T04:12:35;15708.09;;;-145.42;100.00
49367;BME280;35245;52.026;8.540;2024-02-15T04:15:02;15708.09;;;-145.42;100.00
49367;BME280;35245;52.026;8.540;2024-02-15T04:17:32;15456.66;;;-145.42;100.00
49367;BME280;35245;52.026;8.540;2024-02-15T04:20:00;15708.09;;;-145.42;100.00
49367;BME280;35245;52.026;8.540;2024-02-15T04:22:29;16965.53;;;-145.42;100.00
49367;BME280;35245;52.026;8.540;2024-02-15T04:24:57;19481.63;;;-145.42;100.00
49367;BME280;35245;52.026;8.540;2024-02-15T04:27:26;16211.03;;;-145.42;100.00
49367;BME280;35245;52.026;8.540;2024-02-15T04:29:53;12943.19;;;-145.42;100.00
49367;BME280;35245;52.026;8.540;2024-02-15T04:32:21;15456.66;;;-145.42;100.00
49367;BME280;35245;52.026;8.540;2024-02-15T04:34:48;13194.44;;;-145.42;100.00
49367;BME280;35245;52.026;8.540;2024-02-15T04:37:15;11938.22;;;-145.42;100.00
49367;BME280;35245;52.026;8.540;2024-02-15T04:39:43;14702.44;;;-145.42;100.00
49367;BME280;35245;52.026;8.540;2024-02-15T04:42:12;15205.25;;;-145.42;100.00
49367;BME280;35245;52.026;8.540;2024-02-15T04:44:40;17217.09;;;-145.42;100.00
49367;BME280;35245;52.026;8.540;2024-02-15T04:47:07;21243.88;;;-145.42;100.00
49367;BME280;35245;52.026;8.540;2024-02-15T04:49:34;23006.91;;;-145.42;100.00
49367;BME280;35245;52.026;8.540;2024-02-15T04:52:04;23510.78;;;-145.42;100.00
49367;BME280;35245;52.026;8.540;2024-02-15T04:54:32;24266.72;;;-145.42;100.00
49367;BME280;35245;52.026;8.540;2024-02-15T04:56:59;24518.72;;;-145.42;100.00
49367;BME280;35245;52.026;8.540;2024-02-15T04:59:26;31076.66;;;-145.42;100.00
49367;BME280;35245;52.026;8.540;2024-02-15T05:01:58;21243.88;;;-145.42;100.00
49367;BME280;35245;52.026;8.540;2024-02-15T05:04:25;13948.38;;;-145.42;100.00
49367;BME280;35245;52.026;8.540;2024-02-15T05:06:52;12691.91;;;-145.42;100.00
49367;BME280;35245;52.026;8.540;2024-02-15T05:09:19;10933.56;;;-145.42;100.00
49367;BME280;35245;52.026;8.540;2024-02-15T05:11:48;8172.03;;;-145.42;100.00
49367;BME280;35245;52.026;8.540;2024-02-15T05:14:16;9678.06;;;-145.42;100.00
49367;BME280;35245;52.026;8.540;2024-02-15T05:16:45;10180.22;;;-145.42;100.00
49367;BME280;35245;52.026;8.540;2024-02-15T05:19:16;10933.56;;;-145.42;100.00
49367;BME280;35245;52.026;8.540;2024-02-15T05:21:45;10431.31;;;-145.42;100.00
49367;BME280;35245;52.026;8.540;2024-02-15T05:24:13;12440.69;;;-145.42;100.00
49367;BME280;35245;52.026;8.540;2024-02-15T05:26:40;11938.22;;;-145.42;100.00
49367;BME280;35245;52.026;8.540;2024-02-15T05:29:10;12691.91;;;-145.42;100.00
49367;BME280;35245;52.026;8.540;2024-02-15T05:31:37;10682.44;;;-145.42;100.00
49367;BME280;35245;52.026;8.540;2024-02-15T05:34:06;10431.31;;;-145.42;100.00
49367;BME280;35245;52.026;8.540;2024-02-15T05:36:39;11938.22;;;-145.42;100.00
49367;BME280;35245;52.026;8.540;2024-02-15T05:39:06;12440.69;;;-145.42;100.00
49367;BME280;35245;52.026;8.540;2024-02-15T05:41:33;8423.00;;;-145.42;100.00
49367;BME280;35245;52.026;8.540;2024-02-15T05:44:01;7419.22;;;-145.42;100.00
49367;BME280;35245;52.026;8.540;2024-02-15T05:46:30;5412.47;;;-145.42;100.00
49367;BME280;35245;52.026;8.540;2024-02-15T05:48:57;5663.25;;;-145.42;100.00
49367;BME280;35245;52.026;8.540;2024-02-15T05:51:25;6164.88;;;-145.42;100.00
49367;BME280;35245;52.026;8.540;2024-02-15T05:53:53;8673.97;;;-145.42;100.00
49367;BME280;35245;52.026;8.540;2024-02-15T05:56:24;11938.22;;;-145.42;100.00
49367;BME280;35245;52.026;8.540;2024-02-15T05:58:51;11435.88;;;-145.42;100.00
49367;BME280;35245;52.026;8.540;2024-02-15T06:01:19;10682.44;;;-145.42;100.00
49367;BME280;35245;52.026;8.540;2024-02-15T06:03:46;11938.22;;;-145.42;100.00
49367;BME280;35245;52.026;8.540;2024-02-15T06:06:13;9176.00;;;-145.42;100.00
49367;BME280;35245;52.026;8.540;2024-02-15T06:08:40;8172.03;;;-145.42;100.00
49367;BME280;35245;52.026;8.540;2024-02-15T06:11:09;8423.00;;;-145.42;100.00
49367;BME280;35245;52.026;8.540;2024-02-15T06:13:36;14451.06;;;-145.42;100.00
49367;BME280;35245;52.026;8.540;2024-02-15T06:16:04;26283.22;;;-145.42;100.00
49367;BME280;35245;52.026;8.540;2024-02-15T06:18:35;32844.13;;;-145.42;100.00
49367;BME280;35245;52.026;8.540;2024-02-15T06:21:03;24770.75;;;-145.42;100.00
49367;BME280;35245;52.026;8.540;2024-02-15T06:23:31;24266.72;;;-145.42;100.00
49367;BME280;35245;52.026;8.540;2024-02-15T06:25:59;26283.22;;;-145.42;100.00
49367;BME280;35245;52.026;8.540;2024-02-15T06:28:29;17468.63;;;-145.42;100.00
49367;BME280;35245;52.026;8.540;2024-02-15T06:31:14;20488.53;;;-145.42;100.00
49367;BME280;35245;52.026;8.540;2024-02-15T06:33:59;25526.91;;;-145.42;100.00
49367;BME280;35245;52.026;8.540;2024-02-15T06:36:46;29309.97;;;-145.42;100.00
49367;BME280;35245;52.026;8.540;2024-02-15T06:39:32;32844.13;;;-145.42;100.00
49367;BME280;35245;52.026;8.540;2024-02-15T06:42:07;30067.03;;;-145.42;100.00
49367;BME280;35245;52.026;8.540;2024-02-15T06:44:35;28048.53;;;-145.42;100.00
49367;BME280;35245;52.026;8.540;2024-02-15T06:47:03;27544.09;;;-145.42;100.00
49367;BME280;35245;52.026;8.540;2024-02-15T06:49:30;27796.31;;;-145.42;100.00
49367;BME280;35245;52.026;8.540;2024-02-15T06:51:57;28553.06;;;-145.42;100.00
49367;BME280;35245;52.026;8.540;2024-02-15T06:54:24;28300.78;;;-145.42;100.00
49367;BME280;35245;52.026;8.540;2024-02-15T06:56:51;24518.72;;;-145.42;100.00
49367;BME280;35245;52.026;8.540;2024-02-15T06:59:20;34359.75;;;-145.42;100.00
49367;BME280;35245;52.026;8.540;2024-02-15T07:01:49;33096.69;;;-145.42;100.00
49367;BME280;35245;52.026;8.540;2024-02-15T07:04:18;27544.09;;;-145.42;100.00
49367;BME280;35245;52.026;8.540;2024-02-15T07:06:46;24518.72;;;-145.42;100.00
49367;BME280;35245;52.026;8.540;2024-02-15T07:09:15;31329.09;;;-145.42;100.00
49367;BME280;35245;52.026;8.540;2024-02-15T07:11:43;34880.88;;;-145.42;100.00
49367;BME280;35245;52.026;8.540;2024-02-15T07:14:12;31329.09;;;-145.42;100.00
49367;BME280;35245;52.026;8.540;2024-02-15T07:16:39;33096.69;;;-145.42;100.00
49367;BME280;35245;52.026;8.540;2024-02-15T07:19:08;32086.53;;;-145.42;100.00
49367;BME280;35245;52.026;8.540;2024-02-15T07:21:35;31834.03;;;-145.42;100.00
49367;BME280;35245;52.026;8.540;2024-02-15T07:24:03;32591.56;;;-145.42;100.00
49367;BME280;35245;52.026;8.540;2024-02-15T07:26:31;24770.75;;;-145.42;100.00
49367;BME280;35245;52.026;8.540;2024-02-15T07:29:00;32339.06;;;-145.42;100.00
49367;BME280;35245;52.026;8.540;2024-02-15T07:31:32;37382.84;;;-145.42;100.00
49367;BME280;35245;52.026;8.540;2024-02-15T07:34:00;37906.34;;;-145.42;100.00
49367;BME280;35245;52.026;8.540;2024-02-15T07:36:28;32086.53;;;-145.42;100.00
49367;BME280;35245;52.026;8.540;2024-02-15T07:38:55;27291.88;;;-145.42;100.00
49367;BME280;35245;52.026;8.540;2024-02-15T07:41:26;25022.78;;;-145.42;100.00
49367;BME280;35245;52.026;8.540;2024-02-15T07:43:54;23762.75;;;-145.42;100.00
49367;BME280;35245;52.026;8.540;2024-02-15T07:46:22;26031.09;;;-145.42;100.00
49367;BME280;35245;52.026;8.540;2024-02-15T07:48:50;31834.03;;;-145.42;100.00
49367;BME280;35245;52.026;8.540;2024-02-15T07:51:18;32844.13;;;-145.42;100.00
49367;BME280;35245;52.026;8.540;2024-02-15T07:53:47;27544.09;;;-145.42;100.00
49367;BME280;35245;52.026;8.540;2024-02-15T07:56:16;23258.84;;;-145.42;100.00
49367;BME280;35245;52.026;8.540;2024-02-15T07:58:44;34359.75;;;-145.42;100.00
49367;BME280;35245;52.026;8.540;2024-02-15T08:01:12;34107.09;;;-145.42;100.00
49367;BME280;35245;52.026;8.540;2024-02-15T08:03:40;31834.03;;;-145.42;100.00
49367;BME280;35245;52.026;8.540;2024-02-15T08:06:10;37009.53;;;-145.42;100.00
49367;BME280;35245;52.026;8.540;2024-02-15T08:08:38;29057.66;;;-145.42;100.00
49367;BME280;35245;52.026;8.540;2024-02-15T08:11:08;29057.66;;;-145.42;100.00
49367;BME280;35245;52.026;8.540;2024-02-15T08:13:44;26283.22;;;-145.42;100.00
49367;BME280;35245;52.026;8.540;2024-02-15T08:16:14;28048.53;;;-145.42;100.00
49367;BME280;35245;52.026;8.540;2024-02-15T08:18:42;23006.91;;;-145.42;100.00
49367;BME280;35245;52.026;8.540;2024-02-15T08:21:11;23762.75;;;-145.42;100.00
49367;BME280;35245;52.026;8.540;2024-02-15T08:23:39;19733.34;;;-145.42;100.00
49367;BME280;35245;52.026;8.540;2024-02-15T08:26:07;19481.63;;;-145.42;100.00
49367;BME280;35245;52.026;8.540;2024-02-15T08:28:36;20740.31;;;-145.42;100.00
49367;BME280;35245;52.026;8.540;2024-02-15T08:31:04;22755.00;;;-145.42;100.00
49367;BME280;35245;52.026;8.540;2024-02-15T08:33:31;23258.84;;;-145.42;100.00
49367;BME280;35245;52.026;8.540;2024-02-15T08:35:58;19985.06;;;-145.42;100.00
49367;BME280;35245;52.026;8.540;2024-02-15T08:38:27;20740.31;;;-145.42;100.00
49367;BME280;35245;52.026;8.540;2024-02-15T08:40:54;17720.19;;;-145.42;100.00
49367;BME280;35245;52.026;8.540;2024-02-15T08:43:23;17720.19;;;-145.42;100.00
49367;BME280;35245;52.026;8.540;2024-02-15T08:45:50;14451.06;;;-145.42;100.00
49367;BME280;35245;52.026;8.540;2024-02-15T08:48:18;18978.28;;;-145.42;100.00
49367;BME280;35245;52.026;8.540;2024-02-15T08:50:48;21999.38;;;-145.42;100.00
49367;BME280;35245;52.026;8.540;2024-02-15T08:53:15;22755.00;;;-145.42;100.00
49367;BME280;35245;52.026;8.540;2024-02-15T08:55:44;16714.03;;;-145.42;100.00
49367;BME280;35245;52.026;8.540;2024-02-15T08:58:11;24770.75;;;-145.42;100.00
49367;BME280;35245;52.026;8.540;2024-02-15T09:00:40;29562.31;;;-145.42;100.00
49367;BME280;35245;52.026;8.540;2024-02-15T09:03:10;31076.66;;;-145.42;100.00
49367;BME280;35245;52.026;8.540;2024-02-15T09:05:38;30319.41;;;-145.42;100.00
49367;BME280;35245;52.026;8.540;2024-02-15T09:08:06;38546.50;;;-145.42;100.00
49367;BME280;35245;52.026;8.540;2024-02-15T09:10:34;18475.00;;;-145.42;100.00
49367;BME280;35245;52.026;8.540;2024-02-15T09:13:02;17468.63;;;-145.42;100.00
49367;BME280;35245;52.026;8.540;2024-02-15T09:15:31;14953.84;;;-145.42;100.00
49367;BME280;35245;52.026;8.540;2024-02-15T09:18:00;15708.09;;;-145.42;100.00
49367;BME280;35245;52.026;8.540;2024-02-15T09:20:27;14953.84;;;-145.42;100.00
49367;BME280;35245;52.026;8.540;2024-02-15T09:22:55;12943.19;;;-145.42;100.00
49367;BME280;35245;52.026;8.540;2024-02-15T09:25:23;11687.03;;;-145.42;100.00
49367;BME280;35245;52.026;8.540;2024-02-15T09:27:51;11687.03;;;-145.42;100.00
49367;BME280;35245;52.026;8.540;2024-02-15T09:30:20;12943.19;;;-145.42;100.00
49367;BME280;35245;52.026;8.540;2024-02-15T09:32:50;8423.00;;;-145.42;100.00
49367;BME280;35245;52.026;8.540;2024-02-15T09:35:19;8673.97;;;-145.42;100.00
49367;BME280;35245;52.026;8.540;2024-02-15T09:37:48;9176.00;;;-145.42;100.00
49367;BME280;35245;52.026;8.540;2024-02-15T09:40:17;10180.22;;;-145.42;100.00
49367;BME280;35245;52.026;8.540;2024-02-15T09:42:45;8924.97;;;-145.42;100.00
49367;BME280;35245;52.026;8.540;2024-02-15T09:45:13;11435.88;;;-145.42;100.00
49367;BME280;35245;52.026;8.540;2024-02-15T09:47:41;12440.69;;;-145.42;100.00
49367;BME280;35245;52.026;8.540;2024-02-15T09:50:10;9929.13;;;-145.42;100.00
49367;BME280;35245;52.026;8.540;2024-02-15T09:52:44;9929.13;;;-145.42;100.00
49367;BME280;35245;52.026;8.540;2024-02-15T09:55:12;10682.44;;;-145.42;100.00
49367;BME280;35245;52.026;8.540;2024-02-15T09:57:39;10682.44;;;-145.42;100.00
49367;BME280;35245;52.026;8.540;2024-02-15T10:00:10;6917.44;;;-145.42;100.00
49367;BME280;35245;52.026;8.540;2024-02-15T10:02:41;4910.94;;;-145.42;100.00
49367;BME280;35245;52.026;8.540;2024-02-15T10:05:10;6164.88;;;-145.42;100.00
49367;BME280;35245;52.026;8.540;2024-02-15T10:07:39;9678.06;;;-145.42;100.00
49367;BME280;35245;52.026;8.540;2024-02-15T10:10:16;7670.13;;;-145.42;100.00
49367;BME280;35245;52.026;8.540;2024-02-15T10:12:45;10180.22;;;-145.42;100.00
49367;BME280;35245;52.026;8.540;2024-02-15T10:15:28;6666.56;;;-145.42;100.00
49367;BME280;35245;52.026;8.540;2024-02-15T10:17:57;6164.88;;;-145.42;100.00
49367;BME280;35245;52.026;8.540;2024-02-15T10:20:25;6415.72;;;-145.42;100.00
49367;BME280;35245;52.026;8.540;2024-02-15T10:23:09;6917.44;;;-145.42;100.00
49367;BME280;35245;52.026;8.540;2024-02-15T10:25:38;5161.69;;;-145.42;100.00
49367;BME280;35245;52.026;8.540;2024-02-15T10:28:06;3657.41;;;-145.42;100.00
49367;BME280;35245;52.026;8.540;2024-02-15T10:30:34;2654.88;;;-145.42;100.00
49367;BME280;35245;52.026;8.540;2024-02-15T10:33:02;149.69;;;-145.42;100.00
49367;BME280;35245;52.026;8.540;2024-02-15T10:35:29;-601.56;;;-145.42;100.00
49367;BME280;35245;52.026;8.540;2024-02-15T10:38:07;1151.56;;;-145.42;100.00
49367;BME280;35245;52.026;8.540;2024-02-15T10:40:35;-1102.31;;;-145.42;100.00
49367;BME280;35245;52.026;8.540;2024-02-15T10:43:04;-1102.31;;;-145.42;100.00
49367;BME280;35245;52.026;8.540;2024-02-15T10:45:32;-1352.66;;;-145.42;100.00
49367;BME280;35245;52.026;8.540;2024-02-15T10:48:00;-3605.06;;;-145.42;100.00
49367;BME280;35245;52.026;8.540;2024-02-15T10:50:27;-3354.84;;;-145.42;100.00
49367;BME280;35245;52.026;8.540;2024-02-15T10:52:56;-5105.91;;;-145.42;100.00
49367;BME280;35245;52.026;8.540;2024-02-15T10:55:37;-5606.09;;;-145.42;100.00
49367;BME280;35245;52.026;8.540;2024-02-15T10:58:06;-4355.56;;;-145.42;100.00
49367;BME280;35245;52.026;8.540;2024-02-15T11:00:34;-5356.00;;;-145.42;100.00
49367;BME280;35245;52.026;8.540;2024-02-15T11:03:04;-4855.81;;;-145.42;100.00
49367;BME280;35245;52.026;8.540;2024-02-15T11:05:36;-5105.91;;;-145.42;100.00
49367;BME280;35245;52.026;8.540;2024-02-15T11:08:06;-3605.06;;;-145.42;100.00
49367;BME280;35245;52.026;8.540;2024-02-15T11:10:36;-3855.25;;;-145.42;100.00
49367;BME280;35245;52.026;8.540;2024-02-15T11:13:04;-4355.56;;;-145.42;100.00
49367;BME280;35245;52.026;8.540;2024-02-15T11:15:45;-8105.91;;;-145.42;100.00
49367;BME280;35245;52.026;8.540;2024-02-15T11:18:42;-3855.25;;;-145.42;100.00
49367;BME280;35245;52.026;8.540;2024-02-15T11:21:11;-2353.88;;;-145.42;100.00
49367;BME280;35245;52.026;8.540;2024-02-15T11:23:39;-2353.88;;;-145.42;100.00
49367;BME280;35245;52.026;8.540;2024-02-15T11:29:00;-8105.91;;;-145.42;100.00
49367;BME280;35245;52.026;8.540;2024-02-15T11:31:54;-4605.69;;;-145.42;100.00
49367;BME280;35245;52.026;8.540;2024-02-15T11:34:44;-3605.06;;;-145.42;100.00
49367;BME280;35245;52.026;8.540;2024-02-15T11:37:58;-3605.06;;;-145.42;100.00
49367;BME280;35245;52.026;8.540;2024-02-15T11:40:59;-7606.06;;;-145.42;100.00
49367;BME280;35245;52.026;8.540;2024-02-15T11:43:53;-7356.13;;;-145.42;100.00
49367;BME280;35245;52.026;8.540;2024-02-15T11:46:25;-8355.78;;;-145.42;100.00
49367;BME280;35245;52.026;8.540;2024-02-15T11:48:54;-9355.19;;;-145.42;100.00
49367;BME280;35245;52.026;8.540;2024-02-15T11:51:30;-9355.19;;;-145.42;100.00
49367;BME280;35245;52.026;8.540;2024-02-15T11:54:04;-13849.31;;;-145.42;100.00
49367;BME280;35245;52.026;8.540;2024-02-15T11:56:54;-7106.16;;;-145.42;100.00
49367;BME280;35245;52.026;8.540;2024-02-15T11:59:42;-7606.06;;;-145.42;100.00
49367;BME280;35245;52.026;8.540;2024-02-15T12:02:35;-8355.78;;;-145.42;100.00
49367;BME280;35245;52.026;8.540;2024-02-15T12:05:20;-8605.66;;;-145.42;100.00
49367;BME280;35245;52.026;8.540;2024-02-15T12:08:05;-7856.00;;;-145.42;100.00
49367;BME280;35245;52.026;8.540;2024-02-15T12:10:57;-8105.91;;;-145.42;100.00
49367;BME280;35245;52.026;8.540;2024-02-15T12:13:42;-6856.19;;;-145.42;100.00
49367;BME280;35245;52.026;8.540;2024-02-15T12:16:28;-5606.09;;;-145.42;100.00
49367;BME280;35245;52.026;8.540;2024-02-15T12:19:13;-5606.09;;;-145.42;100.00
49367;BME280;35245;52.026;8.540;2024-02-15T12:21:43;-3855.25;;;-145.42;100.00
49367;BME280;35245;52.026;8.540;2024-02-15T12:24:10;-4605.69;;;-145.42;100.00
49367;BME280;35245;52.026;8.540;2024-02-15T12:26:40;-3605.06;;;-145.42;100.00
49367;BME280;35245;52.026;8.540;2024-02-15T12:29:08;-6606.19;;;-145.42;100.00
49367;BME280;35245;52.026;8.540;2024-02-15T12:31:37;-5606.09;;;-145.42;100.00
49367;BME280;35245;52.026;8.540;2024-02-15T12:34:05;-4855.81;;;-145.42;100.00
49367;BME280;35245;52.026;8.540;2024-02-15T12:36:33;-4355.56;;;-145.42;100.00
49367;BME280;35245;52.026;8.540;2024-02-15T12:39:04;-3855.25;;;-145.42;100.00
49367;BME280;35245;52.026;8.540;2024-02-15T12:41:38;-3605.06;;;-145.42;100.00
49367;BME280;35245;52.026;8.540;2024-02-15T12:44:07;149.69;;;-145.42;100.00
49367;BME280;35245;52.026;8.540;2024-02-15T12:46:37;-851.94;;;-145.42;100.00
49367;BME280;35245;52.026;8.540;2024-02-15T12:49:09;1402.06;;;-145.42;100.00